Pagrindinis puslapis
METAR-TAF:

METAR-TAF

Oro uostai :

Heraklionas, Graikija

platuma: 35-20N, ilguma: 025-11E, Aukštis: 37 m

Dabartinis oras

Ataskaita buvo paskelbta 36 minutes, ne 17:20 UTC
Vėjas 16 kt iš Vakarų/Šiaurės Vakarų
Temperatūra 24°C
Drėgmė 69%
Slėgis 1016 hPa
Matomumas 10 km arba daugiau
Mažai debesys ne aukštis 2500 ft

METAR: LGIR 151720Z 30016KT 9999 FEW025 24/18 Q1016 NOSIG

Laikas: 20:56 (17:56 UTC)

Prognozė

Ataskaita buvo paskelbta 56 minutes, ne 17:00 UTC
Prognozė galioja nuo 15 metu 18 UTC su 16 metu 18 UTC
Vėjas 18 kt iš Vakarų/Šiaurės Vakarų
Matomumas 10 km arba daugiau
Mažai debesys ne aukštis 2500 ft

TAF: LGIR 151700Z 1518/1618 30018KT 9999 FEW025

Orai ataskaitas ir orų prognozės (METAR, TAF).

turimą stotys yra geltonos ir raudonos taškus žemėlapyje.

Perkelti pele per norėdami pamatyti stoties vardą.

Tada spustelėkite, norėdami matyti oro stebėjimo ir prognozės.

Norėdami pakeisti žemėlapį: spustelėkite ant žalios mygtukų su juodo kryžiaus žemyn,; žalią mygtuką su brūkšneliu, jei norite nutolinti; arba žalių rodyklių gretimoms žemėlapius.


METAR-TAF: